Time;durP1;ratioP1;P1;durP2;ratioP2;P2;SDS_P1;SDS_P2;PMS_P1;PMS_P2;Temp;Humidity;BMP_temperature;BMP_pressure;BME280_temperature;BME280_humidity;BME280_pressure;Samples;Min_cycle;Max_cycle;Signal;HPM_P1;HPM_P2
2021/01/29 00:00:23;;;;;;;3.73;1.00;;;10.10;99.90;;;;;;5033845;28;20179;-70
2021/01/29 00:02:52;;;;;;;4.57;1.10;;;10.00;99.90;;;;;;5034005;28;20203;-68
2021/01/29 00:05:26;;;;;;;3.17;0.90;;;10.00;99.90;;;;;;5033998;28;20657;-70
2021/01/29 00:07:51;;;;;;;2.13;0.73;;;10.10;99.90;;;;;;5033654;28;20180;-66
2021/01/29 00:10:18;;;;;;;1.87;0.77;;;10.00;99.90;;;;;;5033747;28;20784;-68
2021/01/29 00:12:43;;;;;;;2.17;0.80;;;10.00;99.90;;;;;;5033716;28;20180;-66
2021/01/29 00:15:14;;;;;;;2.90;0.80;;;10.00;99.90;;;;;;5033725;28;20186;-66
2021/01/29 00:17:40;;;;;;;2.60;0.73;;;10.00;99.90;;;;;;5033513;28;20187;-69
2021/01/29 00:20:08;;;;;;;2.53;0.70;;;10.00;99.90;;;;;;5033659;28;20772;-67
2021/01/29 00:22:34;;;;;;;1.60;0.73;;;10.00;99.90;;;;;;5033538;28;20234;-66
2021/01/29 00:24:59;;;;;;;1.13;0.70;;;10.00;99.90;;;;;;5033579;28;20815;-65
2021/01/29 00:27:25;;;;;;;1.93;0.63;;;10.00;99.90;;;;;;5033403;28;20198;-68
2021/01/29 00:29:51;;;;;;;3.03;1.03;;;10.00;99.90;;;;;;5033256;28;20690;-67
2021/01/29 00:32:16;;;;;;;3.33;0.90;;;9.90;99.90;;;;;;5033739;28;20218;-67
2021/01/29 00:34:43;;;;;;;2.40;1.10;;;9.90;99.90;;;;;;5033165;28;20622;-67
2021/01/29 00:37:09;;;;;;;1.60;1.40;;;9.90;99.90;;;;;;5033221;28;20171;-67
2021/01/29 00:39:34;;;;;;;2.57;0.83;;;9.90;99.90;;;;;;5033202;28;20195;-67
2021/01/29 00:42:00;;;;;;;2.17;0.73;;;9.90;99.90;;;;;;5033281;28;20255;-69
2021/01/29 00:44:25;;;;;;;4.00;0.80;;;9.90;99.90;;;;;;5033166;28;20265;-70
2021/01/29 00:46:51;;;;;;;1.80;0.70;;;10.00;99.90;;;;;;5033447;28;20180;-64
2021/01/29 00:49:17;;;;;;;1.73;0.90;;;10.00;99.90;;;;;;5032944;28;20187;-70
2021/01/29 00:51:42;;;;;;;1.47;0.73;;;9.90;99.90;;;;;;5032628;28;20234;-64
2021/01/29 00:54:08;;;;;;;4.97;1.20;;;9.90;99.90;;;;;;5032557;28;20178;-66
2021/01/29 00:56:33;;;;;;;2.63;0.93;;;9.90;99.90;;;;;;5033399;28;20219;-66
2021/01/29 00:58:59;;;;;;;4.20;1.20;;;9.90;99.90;;;;;;5032794;28;20176;-65
2021/01/29 01:01:25;;;;;;;5.17;1.13;;;9.90;99.90;;;;;;5032754;28;20214;-68
2021/01/29 01:03:50;;;;;;;3.83;1.23;;;9.90;99.90;;;;;;5033007;28;20705;-69
2021/01/29 01:06:16;;;;;;;2.10;1.33;;;9.80;99.90;;;;;;5032466;28;20184;-65
2021/01/29 01:08:41;;;;;;;3.20;1.57;;;9.80;99.90;;;;;;5032726;28;20188;-66
2021/01/29 01:11:07;;;;;;;4.93;2.00;;;9.70;99.90;;;;;;5032468;28;20242;-67
2021/01/29 01:13:32;;;;;;;1.60;1.33;;;9.70;99.90;;;;;;5032259;28;20176;-67
2021/01/29 01:15:58;;;;;;;7.17;1.97;;;9.70;99.90;;;;;;5032711;28;20278;-67
2021/01/29 01:18:24;;;;;;;2.20;1.63;;;9.70;99.90;;;;;;5031159;28;20201;-68
2021/01/29 01:20:49;;;;;;;5.30;2.00;;;9.60;99.90;;;;;;5032275;28;20645;-69
2021/01/29 01:23:15;;;;;;;3.00;1.30;;;9.60;99.90;;;;;;5032349;28;20199;-67
2021/01/29 01:25:40;;;;;;;4.10;1.50;;;9.60;99.90;;;;;;5032209;28;20686;-69
2021/01/29 01:28:06;;;;;;;3.23;1.77;;;9.70;99.90;;;;;;5032430;28;20179;-70
2021/01/29 01:30:37;;;;;;;2.03;1.47;;;9.70;99.90;;;;;;5032069;28;20227;-68
2021/01/29 01:33:03;;;;;;;3.63;1.50;;;9.60;99.90;;;;;;5032170;28;20172;-66
2021/01/29 01:35:29;;;;;;;4.20;1.90;;;9.70;99.90;;;;;;5032104;28;20536;-68
2021/01/29 01:37:55;;;;;;;3.70;1.70;;;9.70;99.90;;;;;;5032003;28;20498;-68
2021/01/29 01:40:31;;;;;;;4.93;2.00;;;9.70;99.90;;;;;;5032195;28;20180;-68
2021/01/29 01:42:57;;;;;;;1.77;1.07;;;9.70;99.90;;;;;;5032066;28;20422;-67
2021/01/29 01:45:29;;;;;;;3.00;1.60;;;9.70;99.90;;;;;;5032337;28;20411;-68
2021/01/29 01:48:02;;;;;;;1.33;1.23;;;9.70;99.90;;;;;;5031915;28;20751;-69
2021/01/29 01:50:31;;;;;;;2.93;1.80;;;9.70;99.90;;;;;;5030848;28;20546;-66
2021/01/29 01:52:58;;;;;;;1.93;1.40;;;9.80;99.90;;;;;;5031531;28;20433;-70
2021/01/29 01:55:29;;;;;;;2.50;1.50;;;9.70;99.90;;;;;;5032227;28;20820;-68
2021/01/29 01:57:56;;;;;;;2.40;1.30;;;9.70;99.90;;;;;;5030722;28;20454;-69
2021/01/29 02:00:26;;;;;;;2.13;1.40;;;9.70;99.90;;;;;;5031690;28;20426;-68
2021/01/29 02:03:02;;;;;;;1.90;1.70;;;9.70;99.90;;;;;;5031318;28;20477;-69
2021/01/29 02:05:31;;;;;;;1.60;1.30;;;9.70;99.90;;;;;;5031177;28;20415;-69
2021/01/29 02:08:01;;;;;;;1.53;1.40;;;9.70;99.90;;;;;;5031636;28;20422;-66
2021/01/29 02:10:28;;;;;;;2.00;1.30;;;9.70;99.90;;;;;;5031660;28;21014;-69
2021/01/29 02:12:54;;;;;;;1.40;1.27;;;9.60;99.90;;;;;;5031515;28;20444;-66
2021/01/29 02:15:23;;;;;;;1.10;1.00;;;9.70;99.90;;;;;;5031312;28;20931;-64
2021/01/29 02:17:48;;;;;;;1.50;1.20;;;9.70;99.90;;;;;;5031687;28;20406;-71
2021/01/29 02:20:26;;;;;;;1.37;1.20;;;9.70;99.90;;;;;;5031324;28;20773;-68
2021/01/29 02:23:10;;;;;;;0.90;0.83;;;9.70;99.90;;;;;;5031528;28;20195;-70
2021/01/29 02:25:55;;;;;;;3.00;1.00;;;9.70;99.90;;;;;;5031625;28;20880;-70
2021/01/29 02:28:32;;;;;;;0.93;0.80;;;9.70;99.90;;;;;;5031341;28;20431;-67
2021/01/29 02:31:22;;;;;;;1.33;1.20;;;9.70;99.90;;;;;;5031461;28;20545;-67
2021/01/29 02:34:24;;;;;;;1.33;1.03;;;9.70;99.90;;;;;;5030395;28;20409;-67
2021/01/29 02:37:33;;;;;;;1.80;1.40;;;9.70;99.90;;;;;;5030483;28;20501;-67
2021/01/29 02:40:20;;;;;;;1.50;1.37;;;9.70;99.90;;;;;;4987329;28;20414;-66
2021/01/29 02:42:57;;;;;;;1.37;1.20;;;9.70;99.90;;;;;;5030356;28;20735;-64
2021/01/29 02:45:29;;;;;;;2.87;1.77;;;9.70;99.90;;;;;;5031003;28;20424;-70
2021/01/29 02:48:19;;;;;;;1.70;1.43;;;9.80;99.90;;;;;;5027806;28;20410;-69
2021/01/29 02:50:55;;;;;;;2.70;1.83;;;9.80;99.90;;;;;;5030668;28;20489;-66
2021/01/29 02:53:36;;;;;;;1.13;1.03;;;9.80;99.90;;;;;;5031198;28;20422;-67
2021/01/29 02:56:20;;;;;;;3.07;2.00;;;9.80;99.90;;;;;;5031307;28;20414;-66
2021/01/29 02:58:46;;;;;;;3.23;2.00;;;9.80;99.90;;;;;;5029350;28;20453;-66
2021/01/29 03:01:15;;;;;;;2.33;2.10;;;9.80;99.90;;;;;;5031186;28;20805;-68
2021/01/29 03:03:57;;;;;;;1.43;1.33;;;9.80;99.90;;;;;;5025917;28;20564;-66
2021/01/29 03:06:52;;;;;;;4.47;1.70;;;9.80;99.90;;;;;;5005995;28;20426;-67
2021/01/29 03:09:25;;;;;;;2.30;1.73;;;9.80;99.90;;;;;;5030712;28;20504;-68
2021/01/29 03:12:12;;;;;;;4.40;1.73;;;9.80;99.90;;;;;;5031036;28;20437;-66
2021/01/29 03:14:45;;;;;;;2.50;2.13;;;9.80;99.90;;;;;;5030961;28;20553;-67
2021/01/29 03:17:21;;;;;;;2.17;1.63;;;9.80;99.90;;;;;;5034508;28;20798;-70
2021/01/29 03:20:10;;;;;;;3.97;1.63;;;9.80;99.90;;;;;;5034463;28;20410;-68
2021/01/29 03:22:47;;;;;;;5.50;2.10;;;9.80;99.90;;;;;;5034587;28;20430;-65
2021/01/29 03:25:20;;;;;;;2.87;2.30;;;9.80;99.90;;;;;;5034601;28;20437;-66
2021/01/29 03:27:54;;;;;;;1.97;1.80;;;9.80;99.90;;;;;;5034750;28;20468;-65
2021/01/29 03:30:41;;;;;;;2.27;1.60;;;9.80;99.90;;;;;;5016539;28;20514;-68
2021/01/29 03:33:11;;;;;;;2.63;1.80;;;9.80;99.90;;;;;;5034450;28;20763;-70
2021/01/29 03:35:42;;;;;;;1.37;1.27;;;9.80;99.90;;;;;;5034380;28;20406;-65
2021/01/29 03:38:16;;;;;;;2.17;1.67;;;9.70;99.90;;;;;;5034216;28;20414;-68
2021/01/29 03:40:46;;;;;;;2.93;1.17;;;9.80;99.90;;;;;;5034321;28;20880;-65
2021/01/29 03:43:21;;;;;;;3.23;1.90;;;9.80;99.90;;;;;;5034004;28;20429;-69
2021/01/29 03:46:07;;;;;;;3.47;1.80;;;9.70;99.90;;;;;;5034297;28;20943;-65
2021/01/29 03:49:09;;;;;;;2.03;1.47;;;9.70;99.90;;;;;;5034263;28;20446;-66
2021/01/29 03:51:41;;;;;;;3.50;1.57;;;9.70;99.90;;;;;;5009215;28;20461;-65
2021/01/29 03:54:15;;;;;;;2.83;1.40;;;9.70;99.90;;;;;;5034262;28;20426;-67
2021/01/29 03:56:41;;;;;;;3.27;1.90;;;9.70;99.90;;;;;;5034566;28;20413;-69
2021/01/29 03:59:33;;;;;;;2.90;1.37;;;9.70;99.90;;;;;;5033808;28;20426;-69
2021/01/29 04:02:07;;;;;;;4.60;1.20;;;9.70;99.90;;;;;;5033885;28;20199;-68
2021/01/29 04:04:38;;;;;;;1.30;0.80;;;9.60;99.90;;;;;;5033974;28;20415;-68
2021/01/29 04:07:29;;;;;;;2.03;1.30;;;9.60;99.90;;;;;;5033065;28;20414;-68
2021/01/29 04:09:57;;;;;;;2.60;1.70;;;9.70;99.90;;;;;;5033517;28;20454;-69
2021/01/29 04:12:34;;;;;;;3.13;0.83;;;9.70;99.90;;;;;;5033677;28;20410;-67
2021/01/29 04:15:08;;;;;;;1.30;0.97;;;9.60;99.90;;;;;;5033701;28;20418;-67
2021/01/29 04:17:43;;;;;;;2.37;0.80;;;9.60;99.90;;;;;;5033663;28;20422;-64
2021/01/29 04:20:34;;;;;;;1.63;1.10;;;9.60;99.90;;;;;;5033410;28;20410;-64
2021/01/29 04:23:03;;;;;;;0.67;0.63;;;9.60;99.90;;;;;;5033437;28;20415;-69
2021/01/29 04:25:56;;;;;;;1.77;0.90;;;9.50;99.90;;;;;;5033819;28;20419;-66
2021/01/29 04:28:24;;;;;;;3.07;0.80;;;9.50;99.90;;;;;;5031983;28;20422;-69
2021/01/29 04:30:53;;;;;;;0.80;0.60;;;9.50;99.90;;;;;;5033244;28;20956;-68
2021/01/29 04:33:27;;;;;;;1.00;0.77;;;9.50;99.90;;;;;;5033223;28;20406;-68
2021/01/29 04:35:58;;;;;;;4.00;0.60;;;9.40;99.90;;;;;;5033305;28;20411;-64
2021/01/29 04:38:34;;;;;;;2.20;0.70;;;9.50;99.90;;;;;;5033206;28;20595;-69
2021/01/29 04:41:19;;;;;;;0.67;0.60;;;9.40;99.90;;;;;;5033290;28;20422;-67
2021/01/29 04:43:54;;;;;;;1.13;0.40;;;9.50;99.90;;;;;;5033104;28;20916;-67
2021/01/29 04:46:30;;;;;;;1.20;0.83;;;9.50;99.90;;;;;;5033175;28;20421;-69
2021/01/29 04:49:07;;;;;;;0.87;0.40;;;9.50;99.90;;;;;;5033149;28;20499;-69
2021/01/29 04:52:02;;;;;;;0.30;0.30;;;9.40;99.90;;;;;;5032745;28;20549;-68
2021/01/29 04:55:20;;;;;;;0.37;0.37;;;9.50;99.90;;;;;;5022016;28;20426;-65
2021/01/29 04:58:09;;;;;;;1.63;0.50;;;9.50;99.90;;;;;;5032294;28;20447;-66
2021/01/29 05:00:47;;;;;;;3.43;0.47;;;9.50;99.90;;;;;;5032921;28;20496;-69
2021/01/29 05:03:50;;;;;;;0.60;0.60;;;9.50;99.90;;;;;;5032916;28;20913;-65
2021/01/29 05:06:53;;;;;;;1.13;0.50;;;9.50;99.90;;;;;;5031989;28;20512;-65
2021/01/29 05:09:42;;;;;;;2.17;0.50;;;9.50;99.90;;;;;;5032688;28;20868;-67
2021/01/29 05:12:32;;;;;;;0.57;0.50;;;9.50;99.90;;;;;;5032802;28;20414;-66
2021/01/29 05:15:06;;;;;;;1.70;0.70;;;9.40;99.90;;;;;;5032573;28;20411;-67
2021/01/29 05:17:56;;;;;;;0.60;0.60;;;9.40;99.90;;;;;;5032826;28;20935;-68
2021/01/29 05:20:44;;;;;;;0.40;0.40;;;9.50;99.90;;;;;;5032340;28;20414;-68
2021/01/29 05:23:46;;;;;;;0.30;0.30;;;9.50;99.90;;;;;;5031810;28;20449;-68
2021/01/29 05:26:33;;;;;;;1.20;0.70;;;9.50;99.90;;;;;;5032264;28;20821;-66
2021/01/29 05:29:23;;;;;;;0.77;0.67;;;9.50;99.90;;;;;;5032242;28;20438;-66
2021/01/29 05:32:07;;;;;;;2.50;0.40;;;9.50;99.90;;;;;;5031940;28;20454;-68
2021/01/29 05:34:45;;;;;;;0.80;0.50;;;9.50;99.90;;;;;;5031126;28;20831;-66
2021/01/29 05:37:29;;;;;;;2.17;0.80;;;9.50;99.90;;;;;;5031982;28;20437;-68
2021/01/29 05:39:58;;;;;;;0.63;0.60;;;9.50;99.90;;;;;;5031854;28;20445;-64
2021/01/29 05:42:42;;;;;;;0.30;0.30;;;9.50;99.90;;;;;;5032067;28;20956;-66
2021/01/29 05:45:13;;;;;;;3.87;2.27;;;9.50;99.90;;;;;;5031772;28;20407;-68
2021/01/29 05:47:50;;;;;;;0.30;0.30;;;9.60;99.90;;;;;;5031763;28;20410;-67
2021/01/29 05:50:28;;;;;;;0.43;0.20;;;9.80;99.90;;;;;;5031827;28;20957;-66
2021/01/29 05:53:06;;;;;;;0.60;0.30;;;10.00;99.90;;;;;;5031837;28;20418;-67
2021/01/29 05:55:46;;;;;;;1.60;0.53;;;10.00;99.90;;;;;;5031657;28;20422;-64
2021/01/29 05:58:33;;;;;;;0.20;0.20;;;10.00;99.90;;;;;;5032658;28;20445;-70
2021/01/29 06:01:04;;;;;;;0.93;0.20;;;10.00;99.90;;;;;;5031638;28;20892;-69
2021/01/29 06:04:26;;;;;;;0.50;0.50;;;10.10;99.90;;;;;;5031277;28;20552;-65
2021/01/29 06:07:09;;;;;;;1.70;0.30;;;10.10;99.90;;;;;;4951106;29;20545;-65
2021/01/29 06:10:02;;;;;;;0.30;0.30;;;10.10;99.90;;;;;;4951268;29;20429;-68
2021/01/29 06:12:40;;;;;;;0.30;0.30;;;10.10;99.90;;;;;;4968568;28;20841;-67
2021/01/29 06:15:43;;;;;;;0.97;0.10;;;10.10;99.90;;;;;;4954348;28;20216;-71
2021/01/29 06:18:20;;;;;;;0.90;0.30;;;10.10;99.90;;;;;;4956732;28;20445;-68
2021/01/29 06:21:15;;;;;;;0.23;0.20;;;10.20;99.90;;;;;;4951471;29;20428;-66
2021/01/29 06:23:57;;;;;;;0.50;0.50;;;10.20;99.90;;;;;;4951157;29;20218;-69
2021/01/29 06:26:47;;;;;;;3.57;0.47;;;10.20;99.90;;;;;;4951456;29;20434;-67
2021/01/29 06:29:32;;;;;;;1.30;0.30;;;10.10;99.90;;;;;;4950469;29;20553;-66
2021/01/29 06:32:15;;;;;;;0.50;0.30;;;10.10;99.90;;;;;;4951132;29;20932;-66
2021/01/29 06:34:57;;;;;;;0.20;0.20;;;10.20;99.90;;;;;;4951503;29;20839;-66
2021/01/29 06:37:23;;;;;;;0.20;0.20;;;10.20;99.90;;;;;;4983067;28;20188;-69
2021/01/29 06:39:57;;;;;;;1.13;0.27;;;10.10;99.90;;;;;;5031426;28;20418;-65
2021/01/29 06:42:44;;;;;;;0.30;0.20;;;10.10;99.90;;;;;;5031197;28;20171;-69
2021/01/29 06:45:50;;;;;;;0.17;0.17;;;10.10;99.90;;;;;;5031699;28;20753;-66
2021/01/29 06:48:41;;;;;;;1.13;0.20;;;10.10;99.90;;;;;;5031173;28;20971;-68
2021/01/29 06:51:44;;;;;;;0.60;0.40;;;10.10;99.90;;;;;;5033384;28;20210;-66
2021/01/29 06:54:35;;;;;;;2.93;0.40;;;10.10;99.90;;;;;;5035280;28;20442;-67
2021/01/29 06:57:34;;;;;;;0.33;0.20;;;10.10;99.90;;;;;;5034999;28;20415;-67
2021/01/29 07:00:24;;;;;;;0.60;0.23;;;10.10;99.90;;;;;;5034958;28;20496;-68
2021/01/29 07:03:04;;;;;;;0.73;0.20;;;10.10;99.90;;;;;;5034585;28;20418;-67
2021/01/29 07:05:50;;;;;;;0.27;0.27;;;10.10;99.90;;;;;;5034975;28;20414;-68
2021/01/29 07:08:42;;;;;;;0.77;0.20;;;10.20;99.90;;;;;;5033699;28;20451;-68
2021/01/29 07:11:24;;;;;;;0.10;0.10;;;10.20;99.90;;;;;;5034618;28;20191;-69
2021/01/29 07:13:53;;;;;;;0.20;0.20;;;10.20;99.90;;;;;;5034702;28;20923;-68
2021/01/29 07:16:38;;;;;;;2.00;0.30;;;10.20;99.90;;;;;;5034786;28;20768;-69
2021/01/29 07:19:37;;;;;;;0.50;0.50;;;10.20;99.90;;;;;;5034239;28;20417;-65
2021/01/29 07:22:28;;;;;;;0.30;0.30;;;10.20;99.90;;;;;;5033829;28;20410;-66
2021/01/29 07:25:06;;;;;;;0.50;0.40;;;10.20;99.90;;;;;;4990001;28;20986;-65
2021/01/29 07:27:39;;;;;;;0.30;0.23;;;10.20;99.90;;;;;;5033960;28;20900;-68
2021/01/29 07:30:32;;;;;;;0.40;0.20;;;10.20;99.90;;;;;;5033975;28;20461;-64
2021/01/29 07:33:20;;;;;;;5.67;0.80;;;10.20;99.90;;;;;;5034192;28;20793;-64
2021/01/29 07:36:13;;;;;;;1.20;0.60;;;10.20;99.90;;;;;;5033668;28;20472;-68
2021/01/29 07:38:44;;;;;;;0.67;0.50;;;10.30;99.90;;;;;;5033852;28;20403;-69
2021/01/29 07:41:21;;;;;;;1.43;0.40;;;10.30;99.90;;;;;;5033678;28;20476;-67
2021/01/29 07:44:06;;;;;;;1.03;0.40;;;10.30;99.90;;;;;;5033823;28;20178;-67
2021/01/29 07:47:09;;;;;;;0.50;0.30;;;10.30;99.90;;;;;;5033997;28;20444;-65
2021/01/29 07:49:53;;;;;;;1.03;0.43;;;10.40;99.90;;;;;;5025645;28;20430;-64
2021/01/29 07:52:58;;;;;;;0.77;0.23;;;10.40;99.90;;;;;;5033205;28;20184;-67
2021/01/29 07:55:27;;;;;;;0.50;0.40;;;10.40;99.90;;;;;;5033434;28;20180;-67
2021/01/29 07:58:14;;;;;;;0.60;0.30;;;10.40;99.90;;;;;;5034232;28;20446;-69
2021/01/29 08:01:04;;;;;;;0.77;0.47;;;10.50;99.90;;;;;;5033458;28;20242;-67
2021/01/29 08:04:01;;;;;;;0.97;0.40;;;10.50;99.90;;;;;;5032147;28;20765;-68
2021/01/29 08:06:37;;;;;;;0.53;0.20;;;10.50;99.90;;;;;;5033292;28;20426;-69
2021/01/29 08:09:15;;;;;;;0.60;0.40;;;10.50;99.90;;;;;;5033055;28;20179;-69
2021/01/29 08:11:42;;;;;;;0.47;0.47;;;10.60;99.90;;;;;;5033072;28;20211;-69
2021/01/29 08:14:40;;;;;;;0.90;0.30;;;10.60;99.90;;;;;;5032970;28;20230;-67
2021/01/29 08:17:29;;;;;;;0.37;0.37;;;10.60;99.90;;;;;;5033024;28;20414;-68
2021/01/29 08:20:16;;;;;;;0.67;0.40;;;10.50;99.90;;;;;;5017824;28;20188;-68
2021/01/29 08:23:06;;;;;;;2.00;0.40;;;10.60;99.90;;;;;;5033045;28;20239;-70
2021/01/29 08:26:14;;;;;;;4.70;0.50;;;10.70;99.90;;;;;;5032829;28;20187;-66
2021/01/29 08:29:16;;;;;;;1.33;0.47;;;10.70;99.90;;;;;;5032602;28;20410;-67
2021/01/29 08:32:01;;;;;;;1.97;0.80;;;10.70;99.90;;;;;;5032664;28;20650;-64
2021/01/29 08:35:00;;;;;;;2.73;0.93;;;10.70;99.90;;;;;;5032346;28;20175;-66
2021/01/29 08:37:56;;;;;;;4.20;0.60;;;10.70;99.90;;;;;;5032585;28;20172;-65
2021/01/29 08:40:35;;;;;;;4.83;0.70;;;10.70;99.90;;;;;;5032619;28;20234;-65
2021/01/29 08:43:33;;;;;;;2.93;0.93;;;10.70;99.90;;;;;;5032541;28;20179;-64
2021/01/29 08:46:20;;;;;;;2.23;0.60;;;10.70;99.90;;;;;;5032462;28;20266;-67
2021/01/29 08:48:52;;;;;;;1.83;0.63;;;10.80;99.90;;;;;;5032383;28;20566;-67
2021/01/29 08:51:30;;;;;;;3.70;1.37;;;10.80;99.90;;;;;;5032455;28;20215;-65
2021/01/29 08:54:33;;;;;;;6.87;1.10;;;10.80;99.90;;;;;;5032194;28;20175;-68
2021/01/29 08:57:19;;;;;;;3.27;0.90;;;10.90;99.90;;;;;;5032112;28;20566;-66
2021/01/29 08:59:45;;;;;;;2.20;1.30;;;10.90;99.90;;;;;;5012399;28;20630;-68
2021/01/29 09:02:21;;;;;;;5.23;1.10;;;10.90;99.90;;;;;;5012119;28;20259;-67
2021/01/29 09:04:51;;;;;;;3.50;0.70;;;10.90;99.90;;;;;;5012209;28;20513;-67
2021/01/29 09:07:23;;;;;;;10.40;1.43;;;10.90;99.90;;;;;;5012406;28;20164;-67
2021/01/29 09:09:50;;;;;;;5.63;1.70;;;10.90;99.90;;;;;;5012188;28;20164;-69
2021/01/29 09:12:25;;;;;;;3.23;0.93;;;10.90;99.90;;;;;;5012168;28;20188;-68
2021/01/29 09:15:03;;;;;;;6.53;1.20;;;10.90;99.90;;;;;;5011697;28;20238;-66
2021/01/29 09:17:44;;;;;;;4.87;1.10;;;10.90;99.90;;;;;;5012197;28;20184;-68
2021/01/29 09:20:11;;;;;;;5.63;1.70;;;10.90;99.90;;;;;;5012282;28;20238;-65
2021/01/29 09:22:51;;;;;;;6.03;1.07;;;10.90;99.90;;;;;;5011707;28;20180;-66
2021/01/29 09:25:32;;;;;;;5.40;0.97;;;10.90;99.90;;;;;;5012102;28;20173;-66
2021/01/29 09:28:06;;;;;;;6.70;1.27;;;11.00;99.90;;;;;;5011941;28;20619;-67
2021/01/29 09:30:37;;;;;;;3.67;0.70;;;11.00;99.90;;;;;;5011776;28;20199;-65
2021/01/29 09:33:35;;;;;;;5.23;0.80;;;11.10;99.90;;;;;;5011639;28;20180;-63
2021/01/29 09:36:15;;;;;;;3.30;0.80;;;11.10;99.90;;;;;;4948051;28;20196;-63
2021/01/29 09:39:00;;;;;;;5.20;0.90;;;11.10;99.90;;;;;;5011788;28;20507;-65
2021/01/29 09:42:01;;;;;;;2.60;0.70;;;11.10;99.90;;;;;;5011704;28;20184;-64
2021/01/29 09:44:58;;;;;;;10.40;3.90;;;11.00;99.90;;;;;;4969614;28;20196;-68
2021/01/29 09:47:25;;;;;;;4.03;1.20;;;10.90;99.90;;;;;;5001039;28;20184;-67
2021/01/29 09:50:03;;;;;;;7.37;1.40;;;10.90;99.90;;;;;;5011897;28;20172;-65
2021/01/29 09:52:48;;;;;;;2.97;0.97;;;10.90;99.90;;;;;;5011531;28;20215;-67
2021/01/29 09:55:30;;;;;;;7.73;2.13;;;11.00;99.90;;;;;;5011726;28;20647;-68
2021/01/29 09:58:06;;;;;;;4.83;1.00;;;11.20;99.90;;;;;;5018233;28;20211;-66
2021/01/29 10:00:42;;;;;;;2.87;0.80;;;11.20;99.90;;;;;;5030851;28;20693;-68
2021/01/29 10:03:18;;;;;;;5.10;1.00;;;11.10;99.90;;;;;;5031032;28;20257;-68
2021/01/29 10:05:49;;;;;;;7.20;1.20;;;11.10;99.90;;;;;;5031092;28;20213;-65
2021/01/29 10:08:17;;;;;;;8.73;1.33;;;11.00;99.90;;;;;;5030897;28;20196;-65
2021/01/29 10:11:03;;;;;;;4.87;1.50;;;10.90;99.90;;;;;;5031007;28;20212;-68
2021/01/29 10:13:54;;;;;;;4.47;1.50;;;11.00;99.90;;;;;;5030831;28;20259;-69
2021/01/29 10:16:37;;;;;;;8.03;2.00;;;11.00;99.90;;;;;;5031017;28;20176;-67
2021/01/29 10:19:08;;;;;;;6.57;1.77;;;10.90;99.90;;;;;;5030550;28;20229;-67
2021/01/29 10:21:58;;;;;;;6.37;1.83;;;10.90;99.90;;;;;;5030777;28;20545;-65
2021/01/29 10:24:39;;;;;;;4.13;1.10;;;11.00;99.90;;;;;;5030786;28;20580;-70
2021/01/29 10:27:25;;;;;;;4.90;1.17;;;11.00;99.90;;;;;;5029431;28;20178;-68
2021/01/29 10:30:22;;;;;;;5.90;1.00;;;11.00;99.90;;;;;;5026800;28;20178;-68
2021/01/29 10:33:18;;;;;;;6.57;1.47;;;11.00;99.90;;;;;;5030716;28;20172;-70
2021/01/29 10:35:54;;;;;;;2.23;0.60;;;11.00;99.90;;;;;;5030488;28;20261;-70
2021/01/29 10:38:48;;;;;;;5.27;1.27;;;11.00;99.90;;;;;;5030528;28;20195;-69
2021/01/29 10:41:24;;;;;;;2.53;0.80;;;11.00;99.90;;;;;;5030534;28;20183;-67
2021/01/29 10:44:00;;;;;;;4.03;1.00;;;11.00;99.90;;;;;;5030531;28;20183;-70
2021/01/29 10:46:47;;;;;;;5.20;1.03;;;11.00;99.90;;;;;;5030765;28;20183;-67
2021/01/29 10:49:43;;;;;;;4.60;1.20;;;11.10;99.90;;;;;;5030198;28;20195;-68
2021/01/29 10:52:23;;;;;;;4.87;1.10;;;11.10;99.90;;;;;;5030295;28;20213;-69
2021/01/29 10:54:49;;;;;;;7.13;2.27;;;11.00;99.90;;;;;;5030571;28;20184;-66
2021/01/29 10:57:28;;;;;;;3.73;1.37;;;11.00;99.90;;;;;;5030552;28;20630;-70
2021/01/29 11:00:14;;;;;;;2.10;1.03;;;11.00;99.90;;;;;;5010680;28;20538;-68
2021/01/29 11:03:08;;;;;;;3.73;1.03;;;11.00;99.90;;;;;;5010986;28;20180;-70
2021/01/29 11:05:39;;;;;;;9.37;1.20;;;11.00;99.90;;;;;;5010500;28;20184;-70
2021/01/29 11:08:20;;;;;;;8.43;1.50;;;11.00;99.90;;;;;;5013130;28;20427;-70
2021/01/29 11:10:51;;;;;;;7.20;1.40;;;11.10;99.90;;;;;;5012734;28;20215;-66
2021/01/29 11:13:17;;;;;;;11.57;1.80;;;11.10;99.90;;;;;;5030535;28;20175;-66
2021/01/29 11:15:55;;;;;;;5.93;0.80;;;11.20;99.90;;;;;;5029970;28;20178;-67
2021/01/29 11:18:35;;;;;;;8.33;1.63;;;11.30;99.90;;;;;;5030299;28;20203;-66
2021/01/29 11:21:21;;;;;;;7.77;2.50;;;11.30;99.90;;;;;;5016695;28;20263;-67
2021/01/29 11:24:06;;;;;;;8.63;1.80;;;11.50;99.90;;;;;;5024083;28;20179;-67
2021/01/29 11:26:58;;;;;;;10.17;2.40;;;11.60;99.90;;;;;;5030134;28;20229;-69
2021/01/29 11:29:49;;;;;;;4.83;1.60;;;11.70;99.90;;;;;;5012804;28;20705;-70
2021/01/29 11:32:33;;;;;;;8.57;1.53;;;11.90;99.90;;;;;;5010625;28;20511;-67
2021/01/29 11:35:21;;;;;;;12.47;1.80;;;12.10;99.90;;;;;;5010596;28;20169;-68
2021/01/29 11:37:56;;;;;;;9.93;1.30;;;12.30;99.90;;;;;;5012626;28;20587;-67
2021/01/29 11:40:42;;;;;;;7.73;2.10;;;12.60;99.90;;;;;;5013854;28;20180;-67
2021/01/29 11:43:17;;;;;;;11.77;1.90;;;12.80;99.90;;;;;;5013953;28;20192;-68
2021/01/29 11:45:49;;;;;;;6.77;1.80;;;12.70;99.90;;;;;;5013506;28;20181;-68
2021/01/29 11:48:31;;;;;;;6.70;1.27;;;12.70;99.90;;;;;;5013675;28;20177;-66
2021/01/29 11:51:17;;;;;;;5.90;1.40;;;12.50;99.90;;;;;;5013759;28;20311;-66
2021/01/29 11:53:56;;;;;;;7.17;1.77;;;12.40;99.90;;;;;;5032857;28;20258;-64
2021/01/29 11:57:26;;;;;;;5.87;1.27;;;12.50;99.90;;;;;;5033851;28;20176;-65
2021/01/29 12:00:14;;;;;;;6.27;1.30;;;12.60;99.90;;;;;;4956831;28;20241;-66
2021/01/29 12:02:42;;;;;;;3.73;1.57;;;12.40;99.90;;;;;;5053204;28;20180;-65
2021/01/29 12:05:17;;;;;;;9.37;1.33;;;12.30;99.90;;;;;;5052992;28;20781;-64
2021/01/29 12:08:05;;;;;;;5.73;1.63;;;12.20;99.90;;;;;;5053358;28;20197;-66
2021/01/29 12:10:33;;;;;;;6.77;1.67;;;12.00;99.90;;;;;;5046869;28;20292;-63
2021/01/29 12:13:17;;;;;;;8.87;1.40;;;11.80;99.90;;;;;;5052696;28;20183;-67
2021/01/29 12:15:53;;;;;;;6.63;1.40;;;11.80;99.90;;;;;;5033346;28;20499;-67
2021/01/29 12:18:22;;;;;;;3.70;0.77;;;11.70;99.90;;;;;;5033265;28;20176;-67
2021/01/29 12:20:48;;;;;;;4.43;0.90;;;11.60;99.90;;;;;;5033216;28;20649;-68
2021/01/29 12:23:35;;;;;;;5.73;1.07;;;11.50;99.90;;;;;;5033240;28;20537;-65
2021/01/29 12:26:24;;;;;;;6.90;1.50;;;11.30;99.90;;;;;;5033163;28;20180;-66
2021/01/29 12:28:58;;;;;;;6.80;1.33;;;11.30;99.90;;;;;;5038275;28;20188;-65
2021/01/29 12:31:42;;;;;;;4.20;1.00;;;11.20;99.90;;;;;;5051589;28;20198;-68
2021/01/29 12:34:18;;;;;;;4.83;1.57;;;11.10;99.90;;;;;;5050494;28;20241;-68
2021/01/29 12:37:00;;;;;;;3.80;1.10;;;11.20;99.90;;;;;;5051152;28;20177;-67
2021/01/29 12:39:37;;;;;;;6.70;1.30;;;11.30;99.90;;;;;;5052103;28;20198;-66
2021/01/29 12:42:09;;;;;;;4.63;0.93;;;11.60;99.90;;;;;;5052649;28;20178;-64
2021/01/29 12:44:46;;;;;;;5.67;1.37;;;11.60;99.90;;;;;;5052009;28;20186;-68
2021/01/29 12:47:18;;;;;;;3.57;0.80;;;11.50;99.90;;;;;;5051789;28;20175;-69
2021/01/29 12:49:56;;;;;;;7.67;1.07;;;11.50;99.90;;;;;;5051444;28;20185;-64
2021/01/29 12:52:32;;;;;;;2.00;1.10;;;11.50;99.90;;;;;;5046741;28;20170;-67
2021/01/29 12:55:27;;;;;;;6.47;1.50;;;11.50;99.90;;;;;;5051958;28;20179;-67
2021/01/29 12:58:23;;;;;;;5.67;1.27;;;11.50;99.90;;;;;;5043484;28;20202;-67
2021/01/29 13:00:50;;;;;;;7.33;1.20;;;11.60;99.90;;;;;;5031433;28;20290;-65
2021/01/29 13:03:31;;;;;;;5.40;0.97;;;11.60;99.90;;;;;;5050894;28;20179;-67
2021/01/29 13:06:18;;;;;;;3.60;0.90;;;11.60;99.90;;;;;;5050439;28;20183;-65
2021/01/29 13:09:19;;;;;;;3.70;0.73;;;11.70;99.90;;;;;;5051097;28;20603;-68
2021/01/29 13:11:56;;;;;;;3.10;0.60;;;11.90;99.90;;;;;;4998637;28;20220;-65
2021/01/29 13:14:33;;;;;;;4.00;0.70;;;12.10;99.90;;;;;;5031007;28;20704;-63
2021/01/29 13:17:26;;;;;;;4.63;0.90;;;12.30;99.90;;;;;;5031462;28;20178;-66
2021/01/29 13:20:12;;;;;;;4.33;0.90;;;13.00;99.90;;;;;;5031932;28;20578;-67
2021/01/29 13:22:40;;;;;;;1.10;0.60;;;12.90;99.90;;;;;;5032090;28;20581;-65
2021/01/29 13:25:29;;;;;;;3.60;0.90;;;12.90;99.90;;;;;;5040158;28;20568;-65
2021/01/29 13:28:14;;;;;;;3.97;1.43;;;13.00;99.90;;;;;;5049644;28;20202;-65
2021/01/29 13:30:42;;;;;;;6.47;1.03;;;12.90;99.90;;;;;;5034702;28;20199;-64
2021/01/29 13:33:10;;;;;;;4.73;0.97;;;12.70;99.90;;;;;;5031936;28;20167;-64
2021/01/29 13:35:37;;;;;;;4.20;0.93;;;12.40;99.90;;;;;;5031690;28;20229;-66
2021/01/29 13:38:30;;;;;;;7.37;0.80;;;12.10;99.90;;;;;;5031787;28;20760;-66
2021/01/29 13:41:09;;;;;;;2.17;0.70;;;11.90;99.90;;;;;;5021252;28;20195;-64
2021/01/29 13:43:35;;;;;;;4.63;0.93;;;11.50;99.90;;;;;;5042535;28;20265;-65
2021/01/29 13:46:05;;;;;;;2.90;0.80;;;11.10;99.90;;;;;;5051194;28;20178;-65
2021/01/29 13:48:32;;;;;;;3.90;0.80;;;10.70;99.90;;;;;;5051183;28;20725;-65
2021/01/29 13:51:01;;;;;;;3.83;0.83;;;10.30;99.90;;;;;;5051056;28;20199;-66
2021/01/29 13:53:30;;;;;;;1.37;0.43;;;9.90;99.90;;;;;;5050963;28;20228;-65